Time;durP1;ratioP1;P1;durP2;ratioP2;P2;SDS_P1;SDS_P2;PMS_P1;PMS_P2;Temp;Humidity;BMP_temperature;BMP_pressure;BME280_temperature;BME280_humidity;BME280_pressure;Samples;Min_cycle;Max_cycle;Signal;HPM_P1;HPM_P2
2023/05/09 00:02:08;;;;;;;12.77;9.93;;;;;;;15.95;63.52;99889.91;5071041;28;20016;-76
2023/05/09 00:04:34;;;;;;;10.38;9.45;;;;;;;16.02;63.53;99895.22;5070866;28;20036;-76
2023/05/09 00:07:00;;;;;;;11.30;10.13;;;;;;;16.23;64.06;99934.97;5071071;28;20021;-77
2023/05/09 00:09:25;;;;;;;13.98;8.77;;;;;;;15.80;63.86;99867.97;5070803;28;20082;-76
2023/05/09 00:11:51;;;;;;;10.27;8.93;;;;;;;16.17;64.37;99920.63;5070885;28;20440;-76
2023/05/09 00:14:17;;;;;;;11.50;8.95;;;;;;;16.02;64.23;99909.38;5071092;28;20024;-77
2023/05/09 00:16:45;;;;;;;11.65;9.82;;;;;;;15.97;64.12;99897.69;5070717;28;20021;-76
2023/05/09 00:19:11;;;;;;;11.27;10.10;;;;;;;16.16;64.18;99931.50;5069524;28;20396;-76
2023/05/09 00:21:37;;;;;;;12.80;11.52;;;;;;;15.87;64.20;99885.59;5070639;28;20024;-76
2023/05/09 00:24:03;;;;;;;12.73;11.40;;;;;;;15.74;64.22;99864.28;5069360;28;20021;-76
2023/05/09 00:26:28;;;;;;;13.85;12.45;;;;;;;16.08;63.99;99913.06;5070680;28;20111;-77
2023/05/09 00:28:54;;;;;;;11.15;10.07;;;;;;;16.05;64.36;99911.63;5070509;28;20106;-75
2023/05/09 00:31:20;;;;;;;12.75;11.55;;;;;;;15.57;64.40;99844.34;5073518;28;20034;-76
2023/05/09 00:33:45;;;;;;;15.02;12.65;;;;;;;15.58;64.70;99846.84;5074021;28;20485;-76
2023/05/09 00:36:10;;;;;;;13.45;12.05;;;;;;;15.66;64.46;99864.47;5074166;28;20481;-76
2023/05/09 00:38:36;;;;;;;14.00;12.55;;;;;;;15.52;64.54;99841.47;5074017;28;20047;-76
2023/05/09 00:41:01;;;;;;;13.25;11.73;;;;;;;15.45;64.60;99864.59;5073960;28;20452;-75
2023/05/09 00:43:27;;;;;;;13.88;11.10;;;;;;;15.92;64.63;99927.59;5073787;28;20409;-77
2023/05/09 00:45:52;;;;;;;11.43;10.27;;;;;;;15.51;64.69;99871.75;5073878;28;20078;-76
2023/05/09 00:48:18;;;;;;;11.70;10.60;;;;;;;15.77;64.70;99913.63;5073883;28;20028;-77
2023/05/09 00:50:43;;;;;;;11.73;10.65;;;;;;;15.85;64.96;99916.94;5073899;28;20059;-76
2023/05/09 00:53:09;;;;;;;12.70;11.50;;;;;;;16.01;65.04;99929.03;5073646;28;20028;-76
2023/05/09 00:55:35;;;;;;;12.98;11.13;;;;;;;15.84;64.80;99903.81;5072639;28;20028;-76
2023/05/09 00:58:02;;;;;;;12.30;11.10;;;;;;;16.01;64.71;99926.38;5073926;28;20044;-76
2023/05/09 01:00:28;;;;;;;12.35;11.20;;;;;;;15.83;64.79;99905.66;5073836;28;20024;-76
2023/05/09 01:02:55;;;;;;;11.75;10.55;;;;;;;16.01;64.92;99933.53;5072474;28;20062;-76
2023/05/09 01:05:23;;;;;;;10.80;9.70;;;;;;;15.94;65.13;99916.72;5073791;28;20482;-77
2023/05/09 01:07:55;;;;;;;13.10;11.60;;;;;;;15.83;64.85;99896.84;5073681;28;20024;-76
2023/05/09 01:10:45;;;;;;;12.25;10.95;;;;;;;16.09;64.81;99936.81;5073706;28;20066;-76
2023/05/09 01:13:26;;;;;;;14.75;10.77;;;;;;;16.09;64.89;99938.66;5073441;28;20107;-76
2023/05/09 01:15:54;;;;;;;22.15;12.15;;;;;;;16.10;64.93;99941.13;5073549;28;20036;-77
2023/05/09 01:18:59;;;;;;;10.93;9.88;;;;;;;16.03;64.85;99934.16;5073606;28;20390;-76
2023/05/09 01:21:28;;;;;;;13.35;10.38;;;;;;;15.96;64.90;99943.97;5072470;28;20040;-77
2023/05/09 01:24:14;;;;;;;11.98;10.90;;;;;;;15.91;65.11;99933.13;5073269;28;20025;-75
2023/05/09 01:27:04;;;;;;;11.48;10.38;;;;;;;15.92;64.99;99942.75;5071901;28;20032;-75
2023/05/09 01:29:35;;;;;;;13.27;11.88;;;;;;;15.95;64.86;99943.16;5072850;28;20032;-76
2023/05/09 01:32:08;;;;;;;12.93;11.32;;;;;;;15.68;65.07;99898.88;5072921;28;20077;-76
2023/05/09 01:34:34;;;;;;;11.90;10.80;;;;;;;15.90;64.62;99929.63;5071706;28;20025;-76
2023/05/09 01:37:03;;;;;;;13.05;11.73;;;;;;;15.96;64.98;99943.97;5072992;28;20100;-76
2023/05/09 01:39:32;;;;;;;14.27;11.18;;;;;;;15.53;64.80;99891.00;5072938;28;20481;-76
2023/05/09 01:42:01;;;;;;;14.10;12.60;;;;;;;15.62;65.24;99903.16;5071815;28;20618;-75
2023/05/09 01:44:31;;;;;;;13.60;11.90;;;;;;;15.49;64.90;99887.94;5073068;28;20024;-76
2023/05/09 01:46:58;;;;;;;12.57;11.25;;;;;;;15.89;65.12;99949.28;5072815;28;20024;-76
2023/05/09 01:49:25;;;;;;;12.85;11.13;;;;;;;15.60;65.09;99902.53;5071452;28;20417;-76
2023/05/09 01:51:52;;;;;;;12.77;11.48;;;;;;;15.69;65.39;99912.00;5072631;28;20029;-76
2023/05/09 01:54:21;;;;;;;12.85;11.57;;;;;;;15.82;65.20;99941.28;5072593;28;20485;-76
2023/05/09 01:56:48;;;;;;;12.55;10.77;;;;;;;15.72;65.15;99916.91;5072648;28;20509;-76
2023/05/09 01:59:15;;;;;;;12.57;9.98;;;;;;;15.92;64.96;99945.41;5072820;28;20016;-76
2023/05/09 02:01:42;;;;;;;11.32;10.23;;;;;;;15.88;65.10;99952.97;5072462;28;20032;-75
2023/05/09 02:04:07;;;;;;;12.88;11.38;;;;;;;15.90;65.34;99945.59;5072397;28;20024;-76
2023/05/09 02:06:35;;;;;;;12.48;11.18;;;;;;;15.44;65.19;99868.28;5072399;28;20027;-76
2023/05/09 02:09:01;;;;;;;14.05;10.88;;;;;;;15.53;65.27;99891.00;5072523;28;20131;-76
2023/05/09 02:11:27;;;;;;;11.88;10.68;;;;;;;15.86;65.18;99949.69;5072453;28;20468;-76
2023/05/09 02:13:52;;;;;;;10.63;9.52;;;;;;;15.51;65.23;99887.72;5072321;28;20029;-76
2023/05/09 02:16:18;;;;;;;13.48;10.70;;;;;;;15.42;65.30;99900.41;5072420;28;20025;-75
2023/05/09 02:18:43;;;;;;;13.02;11.75;;;;;;;15.83;65.19;99945.59;5072241;28;20028;-76
2023/05/09 02:21:09;;;;;;;10.10;9.07;;;;;;;15.19;65.35;99844.06;5072098;28;20054;-76
2023/05/09 02:23:34;;;;;;;11.32;10.23;;;;;;;15.68;65.43;99944.97;5071859;28;20021;-76
2023/05/09 02:26:01;;;;;;;10.45;9.45;;;;;;;15.87;65.52;99956.66;5071868;28;20091;-77
2023/05/09 02:28:27;;;;;;;9.60;8.70;;;;;;;15.34;65.16;99876.63;5071848;28;20045;-76
2023/05/09 02:30:55;;;;;;;10.95;9.95;;;;;;;15.79;64.88;99952.34;5071841;28;20021;-75
2023/05/09 02:33:22;;;;;;;10.18;9.18;;;;;;;15.49;64.85;99905.75;5070407;28;20029;-75
2023/05/09 02:35:48;;;;;;;9.45;8.55;;;;;;;15.32;65.19;99893.81;5071699;28;20563;-76
2023/05/09 02:38:14;;;;;;;11.68;10.48;;;;;;;15.80;65.53;99966.47;5071837;28;20489;-76
2023/05/09 02:40:42;;;;;;;10.90;9.88;;;;;;;15.80;65.20;99977.94;5070552;28;20036;-76
2023/05/09 02:43:07;;;;;;;11.80;10.00;;;;;;;15.77;65.47;99973.03;5070305;28;20382;-76
2023/05/09 02:45:33;;;;;;;12.70;11.45;;;;;;;15.31;65.43;99906.31;5070320;28;20086;-75
2023/05/09 02:47:58;;;;;;;12.43;11.23;;;;;;;15.35;65.20;99912.03;5071519;28;20025;-77
2023/05/09 02:50:24;;;;;;;12.48;9.60;;;;;;;15.39;65.56;99910.63;5071449;28;20028;-76
2023/05/09 02:52:50;;;;;;;12.20;10.38;;;;;;;15.75;65.54;99968.94;5071301;28;20028;-77
2023/05/09 02:55:15;;;;;;;11.93;10.25;;;;;;;15.40;65.31;99917.59;5071602;28;20024;-76
2023/05/09 02:57:41;;;;;;;9.90;8.43;;;;;;;15.52;65.18;99950.59;5071461;28;20103;-76
2023/05/09 03:00:10;;;;;;;11.90;9.38;;;;;;;15.14;65.12;99894.38;5070005;28;20025;-77
2023/05/09 03:02:36;;;;;;;10.50;9.38;;;;;;;15.66;65.02;99973.63;5071385;28;20025;-75
2023/05/09 03:05:02;;;;;;;11.32;10.20;;;;;;;15.46;65.50;99948.72;5071316;28;20497;-76
2023/05/09 03:07:28;;;;;;;11.13;8.45;;;;;;;15.67;65.07;99982.41;5071490;28;20082;-76
2023/05/09 03:09:54;;;;;;;9.68;8.48;;;;;;;15.20;64.85;99914.84;5071497;28;20016;-76
2023/05/09 03:12:19;;;;;;;9.73;8.80;;;;;;;15.47;65.11;99969.00;5071236;28;20024;-76
2023/05/09 03:14:45;;;;;;;9.57;7.72;;;;;;;15.58;65.16;100006.53;5071288;28;20052;-76
2023/05/09 03:17:11;;;;;;;10.10;8.35;;;;;;;15.50;64.77;99989.88;5071294;28;20085;-76
2023/05/09 03:19:36;;;;;;;9.43;8.40;;;;;;;15.23;64.80;99954.38;5069961;28;20533;-76
2023/05/09 03:22:02;;;;;;;9.15;8.18;;;;;;;15.28;64.83;99986.50;5071470;28;20021;-75
2023/05/09 03:24:27;;;;;;;8.70;7.78;;;;;;;15.30;64.77;100003.09;5069926;28;20028;-75
2023/05/09 03:26:53;;;;;;;9.35;8.30;;;;;;;15.38;65.20;100018.06;5071081;28;20024;-76
2023/05/09 03:29:18;;;;;;;9.77;8.65;;;;;;;15.30;65.16;99992.47;5071016;28;20025;-77
2023/05/09 03:31:45;;;;;;;11.05;8.10;;;;;;;15.27;65.22;100006.97;5071037;28;20029;-76
2023/05/09 03:34:13;;;;;;;11.00;8.52;;;;;;;15.36;65.08;100023.59;5071222;28;20509;-76
2023/05/09 03:36:41;;;;;;;9.50;7.32;;;;;;;15.03;64.60;99964.09;5071080;28;20031;-76
2023/05/09 03:39:07;;;;;;;9.60;7.57;;;;;;;15.22;64.88;100009.41;5071040;28;20081;-76
2023/05/09 03:41:34;;;;;;;8.68;7.78;;;;;;;15.40;64.92;100034.66;5070997;28;20025;-76
2023/05/09 03:44:00;;;;;;;10.20;9.20;;;;;;;15.02;64.55;99984.53;5071064;28;20017;-76
2023/05/09 03:46:25;;;;;;;9.65;8.73;;;;;;;14.82;64.76;99962.31;5071088;28;20099;-76
2023/05/09 03:48:51;;;;;;;8.63;7.72;;;;;;;15.05;65.04;100004.59;5071130;28;20050;-76
2023/05/09 03:51:16;;;;;;;8.98;8.07;;;;;;;15.26;65.37;100039.91;5071009;28;20028;-76
2023/05/09 03:53:44;;;;;;;12.15;9.68;;;;;;;15.20;65.27;100024.75;5071006;28;20052;-76
2023/05/09 03:56:10;;;;;;;10.35;9.40;;;;;;;15.41;65.18;100054.94;5070168;28;20048;-76
2023/05/09 03:58:35;;;;;;;10.18;8.75;;;;;;;15.34;64.87;100040.78;5070920;28;20481;-76
2023/05/09 04:01:01;;;;;;;11.05;9.27;;;;;;;15.15;64.79;100005.06;5071072;28;20016;-76
2023/05/09 04:03:27;;;;;;;9.15;8.23;;;;;;;15.18;65.00;100008.16;5070801;28;20481;-75
2023/05/09 04:05:53;;;;;;;11.27;8.90;;;;;;;15.49;64.83;100074.22;5073267;28;20417;-76
2023/05/09 04:08:18;;;;;;;12.48;9.90;;;;;;;15.34;65.27;100035.44;5074578;28;20100;-76
2023/05/09 04:10:43;;;;;;;13.20;9.55;;;;;;;15.05;65.00;99988.66;5074451;28;20022;-75
2023/05/09 04:13:10;;;;;;;14.55;11.63;;;;;;;15.49;64.77;100063.56;5074562;28;20020;-76
2023/05/09 04:15:35;;;;;;;13.13;11.65;;;;;;;15.13;65.30;100007.91;5074637;28;20494;-76
2023/05/09 04:18:01;;;;;;;12.25;10.30;;;;;;;15.43;65.59;100058.22;5074456;28;20035;-76
2023/05/09 04:20:26;;;;;;;14.45;12.40;;;;;;;15.48;65.27;100077.06;5074781;28;20082;-75
2023/05/09 04:22:52;;;;;;;13.82;12.32;;;;;;;15.32;65.04;100043.63;5074554;28;20761;-76
2023/05/09 04:25:19;;;;;;;14.88;10.13;;;;;;;14.82;65.31;99975.59;5074189;28;20025;-76
2023/05/09 04:27:44;;;;;;;10.80;9.48;;;;;;;15.22;65.26;100035.19;5074097;28;20129;-76
2023/05/09 04:30:10;;;;;;;13.65;11.00;;;;;;;15.08;65.47;100015.66;5074318;28;20428;-76
2023/05/09 04:32:37;;;;;;;13.68;10.45;;;;;;;15.24;65.42;100049.13;5074274;28;20027;-75
2023/05/09 04:35:03;;;;;;;15.00;11.40;;;;;;;15.24;65.68;100039.28;5073908;28;20016;-75
2023/05/09 04:37:30;;;;;;;12.88;11.40;;;;;;;15.47;65.23;100070.94;5074066;28;20496;-76
2023/05/09 04:39:55;;;;;;;12.15;10.82;;;;;;;15.37;65.66;100059.00;5072800;28;20070;-75
2023/05/09 04:42:21;;;;;;;14.95;13.45;;;;;;;15.54;65.26;100090.41;5073903;28;20024;-76
2023/05/09 04:44:48;;;;;;;12.85;11.43;;;;;;;15.11;65.42;100007.28;5072589;28;20024;-76
2023/05/09 04:47:13;;;;;;;14.27;11.55;;;;;;;15.55;65.56;100081.41;5074001;28;20099;-75
2023/05/09 04:49:39;;;;;;;13.00;11.70;;;;;;;15.08;65.36;100006.88;5073994;28;20457;-76
2023/05/09 04:52:05;;;;;;;13.60;11.82;;;;;;;15.53;65.42;100075.47;5072379;28;20021;-76
2023/05/09 04:54:31;;;;;;;13.88;12.57;;;;;;;15.29;65.06;100038.69;5073806;28;20052;-76
2023/05/09 04:56:56;;;;;;;12.52;10.20;;;;;;;15.33;65.29;100036.47;5073791;28;20062;-76
2023/05/09 04:59:22;;;;;;;12.40;10.88;;;;;;;15.23;65.27;100018.22;5073738;28;20024;-75
2023/05/09 05:01:47;;;;;;;14.10;12.50;;;;;;;15.20;65.05;100011.44;5071075;28;20050;-74
2023/05/09 05:04:13;;;;;;;12.77;11.48;;;;;;;15.48;65.43;100074.41;5052143;28;20021;-75
2023/05/09 05:06:38;;;;;;;15.20;10.70;;;;;;;15.14;65.12;100009.56;5053693;28;20017;-76
2023/05/09 05:09:03;;;;;;;16.88;11.38;;;;;;;15.27;65.50;100028.25;5053579;28;20109;-75
2023/05/09 05:11:29;;;;;;;13.82;12.38;;;;;;;15.70;65.21;100085.84;5053144;28;20497;-76
2023/05/09 05:13:54;;;;;;;15.15;11.90;;;;;;;15.74;65.17;100089.75;5053335;28;20047;-75
2023/05/09 05:16:20;;;;;;;13.57;12.18;;;;;;;15.26;65.10;100000.00;5053179;28;20102;-75
2023/05/09 05:18:45;;;;;;;16.50;11.80;;;;;;;15.61;65.16;100074.53;5052010;28;20456;-75
2023/05/09 05:21:10;;;;;;;14.98;11.80;;;;;;;15.57;65.14;100052.78;5053339;28;20017;-76
2023/05/09 05:23:36;;;;;;;14.82;11.10;;;;;;;15.86;64.96;100085.50;5053240;28;20470;-76
2023/05/09 05:26:01;;;;;;;13.55;11.05;;;;;;;15.73;64.98;100053.50;5054046;28;20024;-75
2023/05/09 05:28:27;;;;;;;12.85;10.60;;;;;;;15.60;64.69;100032.13;5070792;28;20516;-75
2023/05/09 05:30:52;;;;;;;12.57;10.45;;;;;;;15.42;64.71;100009.50;5071303;28;20039;-75
2023/05/09 05:33:17;;;;;;;12.52;9.13;;;;;;;15.73;64.33;100051.66;5068553;28;20512;-75
2023/05/09 05:35:43;;;;;;;11.20;8.18;;;;;;;15.76;64.44;100051.25;5053228;28;20078;-75
2023/05/09 05:38:08;;;;;;;13.15;9.35;;;;;;;15.69;64.46;100042.44;5072302;28;20782;-76
2023/05/09 05:40:33;;;;;;;10.48;8.52;;;;;;;16.00;64.53;100079.19;5068494;28;20420;-76
2023/05/09 05:42:59;;;;;;;9.93;8.10;;;;;;;15.76;64.07;100026.47;5071848;28;20081;-76
2023/05/09 05:45:25;;;;;;;11.30;10.30;;;;;;;16.03;63.58;100057.50;5056437;28;20458;-76
2023/05/09 05:47:50;;;;;;;12.75;9.20;;;;;;;16.01;63.58;100062.19;5067450;28;20025;-75
2023/05/09 05:50:15;;;;;;;12.52;10.35;;;;;;;16.07;63.38;100074.72;5066528;28;20025;-75
2023/05/09 05:52:41;;;;;;;14.55;10.65;;;;;;;15.60;63.33;100018.81;5052587;28;20025;-75
2023/05/09 05:55:07;;;;;;;10.85;9.75;;;;;;;16.13;63.56;100089.91;5052461;28;20221;-77
2023/05/09 05:57:34;;;;;;;12.27;9.07;;;;;;;16.10;63.14;100084.97;5066222;28;20028;-76
2023/05/09 05:59:59;;;;;;;10.27;9.18;;;;;;;16.09;63.16;100090.50;5072520;28;20032;-76
2023/05/09 06:02:25;;;;;;;12.20;9.35;;;;;;;15.77;63.17;100052.91;5071361;28;20390;-75
2023/05/09 06:04:50;;;;;;;15.05;10.88;;;;;;;15.74;63.34;100040.00;5069320;28;20501;-76
2023/05/09 06:07:16;;;;;;;15.43;11.55;;;;;;;15.94;63.37;100087.16;5070361;28;20493;-76
2023/05/09 06:09:41;;;;;;;12.90;11.10;;;;;;;15.67;63.23;100048.97;5069429;28;20040;-76
2023/05/09 06:12:07;;;;;;;14.23;10.50;;;;;;;15.45;63.25;100017.09;5070999;28;20795;-76
2023/05/09 06:14:32;;;;;;;22.15;15.10;;;;;;;15.65;63.12;100041.19;5060795;28;20074;-75
2023/05/09 06:16:58;;;;;;;16.75;12.30;;;;;;;15.84;63.04;100064.41;5064353;28;20047;-76
2023/05/09 06:19:24;;;;;;;16.83;11.63;;;;;;;15.65;63.27;100032.38;5065122;28;20123;-76
2023/05/09 06:21:49;;;;;;;15.48;12.00;;;;;;;15.58;63.10;100017.16;5064490;28;20028;-76
2023/05/09 06:24:15;;;;;;;18.48;13.63;;;;;;;15.62;63.44;100030.94;5058273;28;20036;-76
2023/05/09 06:26:41;;;;;;;14.55;10.23;;;;;;;16.09;63.25;100103.81;5067591;28;20031;-75
2023/05/09 06:29:06;;;;;;;23.60;19.25;;;;;;;16.02;63.05;100076.34;5062715;28;20051;-76
2023/05/09 06:31:36;;;;;;;17.05;13.73;;;;;;;15.66;62.92;100018.88;5062718;28;20544;-76
2023/05/09 06:34:02;;;;;;;16.77;11.43;;;;;;;15.47;63.03;99976.97;5070259;28;20029;-77
2023/05/09 06:36:27;;;;;;;15.15;11.05;;;;;;;16.25;62.98;100094.63;5056127;28;20033;-75
2023/05/09 06:38:53;;;;;;;10.45;9.35;;;;;;;15.97;62.38;100030.84;5062457;28;20032;-76
2023/05/09 06:41:18;;;;;;;13.90;10.15;;;;;;;15.91;62.02;100021.00;5064418;28;20409;-75
2023/05/09 06:43:44;;;;;;;13.27;11.05;;;;;;;15.80;61.88;100014.41;5071316;28;20047;-77
2023/05/09 06:46:09;;;;;;;16.13;11.93;;;;;;;16.25;61.49;100065.31;5065920;28;20035;-76
2023/05/09 06:48:35;;;;;;;13.32;10.25;;;;;;;16.00;61.56;100033.09;5066394;28;20466;-75
2023/05/09 06:51:00;;;;;;;13.38;10.43;;;;;;;15.84;61.56;100019.13;5056218;28;20021;-75
2023/05/09 06:53:26;;;;;;;12.93;10.02;;;;;;;16.15;61.86;100055.06;5051279;28;20532;-76
2023/05/09 06:55:51;;;;;;;12.45;9.80;;;;;;;15.87;61.40;100013.41;5057505;28;20039;-76
2023/05/09 06:58:16;;;;;;;13.88;9.20;;;;;;;16.15;61.31;100050.56;5064201;28;20112;-76
2023/05/09 07:00:42;;;;;;;11.35;9.20;;;;;;;16.32;61.12;100064.31;5056312;28;20021;-76
2023/05/09 07:03:07;;;;;;;11.65;8.10;;;;;;;15.88;61.03;100003.56;5068204;28;20044;-76
2023/05/09 07:05:33;;;;;;;13.65;9.77;;;;;;;16.14;61.45;100050.75;5062639;28;20029;-76
2023/05/09 07:07:58;;;;;;;13.82;11.27;;;;;;;16.46;61.40;100098.00;5051007;28;20078;-76
2023/05/09 07:10:24;;;;;;;15.77;14.18;;;;;;;16.18;61.18;100034.16;5066367;28;20017;-76
2023/05/09 07:12:52;;;;;;;66.95;55.95;;;;;;;16.35;60.89;100039.97;5065508;28;20493;-75
2023/05/09 07:15:17;;;;;;;15.23;13.43;;;;;;;16.76;60.87;100100.31;5065817;28;20082;-75
2023/05/09 07:17:43;;;;;;;15.82;10.38;;;;;;;16.78;60.36;100100.94;5051561;28;20032;-76
2023/05/09 07:20:09;;;;;;;19.13;13.27;;;;;;;15.88;60.36;99974.28;5061455;28;20035;-76
2023/05/09 07:22:34;;;;;;;25.15;22.45;;;;;;;16.82;59.91;100104.81;5059853;28;20028;-77
2023/05/09 07:24:59;;;;;;;20.83;17.67;;;;;;;16.89;60.02;100105.63;5064737;28;20098;-76
2023/05/09 07:27:25;;;;;;;18.58;16.45;;;;;;;16.69;59.99;100072.81;5070817;28;20532;-76
2023/05/09 07:29:51;;;;;;;13.48;12.02;;;;;;;16.66;60.27;100073.22;5070930;28;20043;-77
2023/05/09 07:32:20;;;;;;;12.82;9.70;;;;;;;16.50;59.42;100043.25;5052289;28;20056;-75
2023/05/09 07:34:46;;;;;;;14.85;12.05;;;;;;;16.22;59.42;100013.25;5050059;28;20035;-75
2023/05/09 07:37:12;;;;;;;15.30;12.18;;;;;;;16.18;59.83;100034.16;5068188;28;20039;-76
2023/05/09 07:39:37;;;;;;;13.63;11.45;;;;;;;16.67;59.69;100096.19;5070800;28;20028;-77
2023/05/09 07:42:04;;;;;;;19.58;13.02;;;;;;;16.78;59.64;100120.41;5069563;28;20105;-76
2023/05/09 07:44:30;;;;;;;16.92;11.75;;;;;;;16.39;59.50;100059.84;5056894;28;20020;-76
2023/05/09 07:46:57;;;;;;;16.85;11.50;;;;;;;16.68;59.99;100120.00;5065565;28;20416;-77
2023/05/09 07:49:23;;;;;;;14.85;10.88;;;;;;;16.10;59.48;100023.69;5064373;28;20030;-78
2023/05/09 07:51:48;;;;;;;10.85;9.65;;;;;;;16.65;59.57;100114.22;5072621;28;20039;-76
2023/05/09 07:54:15;;;;;;;15.07;10.10;;;;;;;16.29;59.77;100067.38;5065686;28;20021;-75
2023/05/09 07:56:41;;;;;;;11.15;9.30;;;;;;;16.28;59.91;100071.06;5070577;28;20029;-76
2023/05/09 07:59:06;;;;;;;15.50;10.05;;;;;;;16.08;59.72;100038.25;5073080;28;20158;-75
2023/05/09 08:01:31;;;;;;;14.23;12.15;;;;;;;16.46;59.89;100106.00;5074479;28;20025;-74
2023/05/09 08:03:57;;;;;;;17.77;11.57;;;;;;;16.46;59.82;100113.97;5064310;28;20109;-76
2023/05/09 08:06:22;;;;;;;19.02;14.77;;;;;;;16.29;60.24;100086.03;5061525;28;20032;-76
2023/05/09 08:08:48;;;;;;;18.23;13.70;;;;;;;16.46;60.02;100113.16;5070257;28;20107;-76
2023/05/09 08:11:13;;;;;;;20.13;14.05;;;;;;;16.00;59.51;100059.72;5071595;28;20059;-77
2023/05/09 08:13:39;;;;;;;14.15;11.32;;;;;;;15.88;59.78;100057.66;5071749;28;20036;-76
2023/05/09 08:16:04;;;;;;;11.50;10.45;;;;;;;16.33;59.63;100135.25;5068743;28;20529;-76
2023/05/09 08:18:30;;;;;;;11.48;10.32;;;;;;;15.73;59.91;100059.66;5065951;28;20417;-76
2023/05/09 08:20:55;;;;;;;12.50;10.10;;;;;;;16.26;59.72;100131.75;5068006;28;20024;-78
2023/05/09 08:23:20;;;;;;;14.38;11.38;;;;;;;15.63;59.94;100061.03;5073710;28;20127;-76
2023/05/09 08:25:46;;;;;;;16.80;12.05;;;;;;;15.76;60.30;100077.88;5073995;28;20016;-78
2023/05/09 08:28:11;;;;;;;12.90;9.85;;;;;;;15.42;60.34;100037.94;5071595;28;20070;-77
2023/05/09 08:30:37;;;;;;;18.25;11.75;;;;;;;15.45;60.51;100045.53;5067203;28;20053;-76
2023/05/09 08:33:02;;;;;;;16.58;11.98;;;;;;;15.92;60.49;100123.84;5058994;28;20028;-77
2023/05/09 08:35:28;;;;;;;16.25;13.38;;;;;;;15.82;60.94;100105.56;5066629;28;20035;-77
2023/05/09 08:37:53;;;;;;;15.20;13.45;;;;;;;15.76;61.29;100103.69;5069148;28;20481;-76
2023/05/09 08:40:18;;;;;;;15.20;13.68;;;;;;;15.83;61.13;100109.88;5070973;28;20159;-76
2023/05/09 08:42:47;;;;;;;12.68;11.32;;;;;;;15.48;61.13;100074.41;5072098;28;20017;-77
2023/05/09 08:45:13;;;;;;;16.27;12.23;;;;;;;15.91;61.08;100132.84;5069528;28;20024;-77
2023/05/09 08:47:40;;;;;;;16.63;13.10;;;;;;;15.62;61.08;100086.84;5071459;28;20024;-77
2023/05/09 08:50:07;;;;;;;17.02;12.48;;;;;;;15.83;61.09;100132.00;5070386;28;20424;-77
2023/05/09 08:52:33;;;;;;;15.25;12.27;;;;;;;15.15;61.09;100019.19;5059353;28;20032;-76
2023/05/09 08:55:06;;;;;;;15.38;12.52;;;;;;;15.76;61.05;100120.50;5060247;28;20085;-77
2023/05/09 08:57:35;;;;;;;17.17;15.48;;;;;;;15.83;61.27;100133.84;5072849;28;20021;-76
2023/05/09 09:00:03;;;;;;;17.65;15.77;;;;;;;15.58;61.11;100082.88;5065912;28;20036;-76
2023/05/09 09:02:28;;;;;;;18.27;13.98;;;;;;;15.57;60.96;100079.41;5072254;28;20477;-77
2023/05/09 09:04:54;;;;;;;14.35;12.40;;;;;;;15.37;60.62;100033.22;5069931;28;20032;-76
2023/05/09 09:07:21;;;;;;;15.55;13.57;;;;;;;15.80;60.53;100095.09;5072550;28;20616;-77
2023/05/09 09:09:48;;;;;;;20.15;15.57;;;;;;;16.00;60.53;100123.66;5068471;28;20032;-77
2023/05/09 09:12:15;;;;;;;15.75;14.15;;;;;;;15.57;60.16;100055.44;5058206;28;20409;-76
2023/05/09 09:14:46;;;;;;;18.23;12.10;;;;;;;15.76;59.88;100050.44;5060949;28;20095;-76
2023/05/09 09:17:16;;;;;;;16.63;11.68;;;;;;;15.71;59.73;100042.22;5068053;28;20020;-77
2023/05/09 09:19:43;;;;;;;14.73;11.30;;;;;;;16.19;59.71;100115.72;5071340;28;20103;-77
2023/05/09 09:22:14;;;;;;;15.30;13.70;;;;;;;16.20;59.82;100113.88;5072989;28;20032;-77
2023/05/09 09:24:39;;;;;;;19.42;12.20;;;;;;;15.56;59.81;100015.69;5061613;28;20025;-76
2023/05/09 09:27:05;;;;;;;14.90;10.73;;;;;;;16.23;59.50;100120.66;5055772;28;20028;-76
2023/05/09 09:29:32;;;;;;;13.05;11.73;;;;;;;16.27;59.13;100119.25;5060619;28;20024;-76
2023/05/09 09:32:01;;;;;;;13.77;11.90;;;;;;;16.31;59.28;100125.81;5070586;28;20405;-76
2023/05/09 09:34:26;;;;;;;15.50;12.57;;;;;;;16.00;59.43;100075.72;5061526;28;20028;-75
2023/05/09 09:36:52;;;;;;;15.43;11.68;;;;;;;15.97;59.29;100074.28;5063690;28;20517;-77
2023/05/09 09:39:17;;;;;;;14.30;12.77;;;;;;;16.35;59.34;100119.91;5072331;28;20055;-78
2023/05/09 09:41:45;;;;;;;14.80;11.20;;;;;;;16.21;59.44;100097.69;5071100;28;20485;-77
2023/05/09 09:44:18;;;;;;;14.43;10.65;;;;;;;16.40;59.37;100117.47;5072071;28;20013;-75
2023/05/09 09:46:46;;;;;;;10.25;9.25;;;;;;;16.44;59.23;100117.88;5072027;28;20028;-75
2023/05/09 09:49:13;;;;;;;11.70;8.95;;;;;;;16.44;58.66;100118.69;5072261;28;20043;-76
2023/05/09 09:51:40;;;;;;;13.45;9.55;;;;;;;16.33;58.68;100124.59;5071524;28;20429;-76
2023/05/09 09:54:07;;;;;;;10.88;8.55;;;;;;;15.84;58.44;100058.25;5070642;28;20044;-76
2023/05/09 09:56:42;;;;;;;11.80;8.48;;;;;;;16.28;58.29;100121.69;5071946;28;20471;-77
2023/05/09 09:59:13;;;;;;;11.68;8.98;;;;;;;16.15;58.29;100113.66;5072208;28;20029;-77
2023/05/09 10:02:11;;;;;;;12.30;10.03;;;;;;;16.07;58.60;100089.88;5071939;28;20451;-76
2023/05/09 10:04:38;;;;;;;13.52;10.23;;;;;;;16.20;58.70;100117.38;5069526;28;20373;-77
2023/05/09 10:07:09;;;;;;;12.95;9.93;;;;;;;15.70;59.07;100048.56;5070650;28;20394;-75
2023/05/09 10:09:36;;;;;;;13.38;10.50;;;;;;;15.85;58.96;100065.22;5071680;28;20104;-76
2023/05/09 10:12:06;;;;;;;15.45;11.65;;;;;;;16.10;59.18;100102.78;5070014;28;20034;-76
2023/05/09 10:14:34;;;;;;;13.70;11.70;;;;;;;15.77;59.20;100041.44;5071490;28;20028;-76
2023/05/09 10:17:01;;;;;;;14.60;10.60;;;;;;;15.86;58.96;100067.69;5070412;28;20535;-76
2023/05/09 10:19:28;;;;;;;12.27;11.02;;;;;;;16.09;59.02;100107.31;5071763;28;20413;-77
2023/05/09 10:21:55;;;;;;;12.75;10.65;;;;;;;16.12;59.26;100122.06;5071658;28;20020;-76
2023/05/09 10:24:27;;;;;;;14.35;11.35;;;;;;;16.02;59.89;100103.78;5070472;28;20023;-76
2023/05/09 10:27:02;;;;;;;15.10;10.75;;;;;;;15.61;59.71;100041.78;5065968;28;20054;-76
2023/05/09 10:29:31;;;;;;;13.25;10.55;;;;;;;16.20;59.58;100117.38;5070841;28;20062;-77
2023/05/09 10:32:01;;;;;;;12.95;10.20;;;;;;;16.02;59.33;100081.66;5071543;28;20020;-76
2023/05/09 10:34:31;;;;;;;14.20;9.23;;;;;;;16.30;59.21;100114.31;5062509;28;20497;-77
2023/05/09 10:36:59;;;;;;;15.98;10.65;;;;;;;15.58;58.92;100003.03;5055981;28;20086;-76
2023/05/09 10:39:26;;;;;;;17.38;11.07;;;;;;;15.45;58.60;99971.84;5063591;28;20097;-77
2023/05/09 10:41:53;;;;;;;14.07;9.82;;;;;;;16.42;58.21;100114.59;5067317;28;20078;-77
2023/05/09 10:44:20;;;;;;;11.75;10.13;;;;;;;16.13;58.02;100059.78;5065226;28;20036;-75
2023/05/09 10:46:46;;;;;;;15.32;10.63;;;;;;;16.31;57.48;100076.00;5063704;28;20038;-77
2023/05/09 10:49:12;;;;;;;10.50;9.40;;;;;;;16.39;57.88;100078.50;5066163;28;20130;-77
2023/05/09 10:51:38;;;;;;;11.45;9.80;;;;;;;16.53;57.29;100082.00;5064453;28;20501;-77
2023/05/09 10:54:13;;;;;;;11.50;9.80;;;;;;;16.64;57.07;100076.06;5061958;28;20044;-78
2023/05/09 10:56:39;;;;;;;11.93;9.43;;;;;;;16.77;56.55;100075.28;5062367;28;20025;-77
2023/05/09 10:59:04;;;;;;;14.05;10.60;;;;;;;17.07;56.60;100129.03;5066938;28;20054;-76
2023/05/09 11:01:37;;;;;;;12.05;10.38;;;;;;;17.03;56.27;100111.78;5066738;28;20429;-76
2023/05/09 11:04:15;;;;;;;10.43;9.32;;;;;;;17.10;55.45;100112.63;5058848;28;20297;-76
2023/05/09 11:06:41;;;;;;;9.88;8.63;;;;;;;17.15;55.85;100120.84;5050850;28;20407;-76
2023/05/09 11:09:26;;;;;;;10.45;8.38;;;;;;;17.09;55.44;100118.97;5061495;28;20036;-77
2023/05/09 11:11:54;;;;;;;9.95;8.25;;;;;;;16.58;55.67;100062.72;5064141;28;20258;-76
2023/05/09 11:14:39;;;;;;;13.05;10.05;;;;;;;16.92;56.02;100123.91;5062337;28;20494;-78